Time;durP1;ratioP1;P1;durP2;ratioP2;P2;SDS_P1;SDS_P2;PMS_P1;PMS_P2;Temp;Humidity;BMP_temperature;BMP_pressure;BME280_temperature;BME280_humidity;BME280_pressure;Samples;Min_cycle;Max_cycle;Signal;HPM_P1;HPM_P2
2022/10/09 00:01:06;;;;;;;3.30;1.80;;;;;;;5.79;100.00;101620.09;4987452;28;20077;-82
2022/10/09 00:03:34;;;;;;;3.00;1.57;;;;;;;5.73;100.00;101620.03;4958753;28;20047;-81
2022/10/09 00:06:02;;;;;;;3.13;1.83;;;;;;;5.75;100.00;101628.78;4979103;28;20450;-82
2022/10/09 00:08:28;;;;;;;4.47;1.53;;;;;;;5.74;100.00;101629.66;4971256;28;20039;-81
2022/10/09 00:10:55;;;;;;;2.90;1.83;;;;;;;5.73;100.00;101630.50;4957613;28;20053;-80
2022/10/09 00:13:22;;;;;;;5.13;2.23;;;;;;;5.69;100.00;101631.31;4979137;28;20043;-81
2022/10/09 00:15:49;;;;;;;3.93;1.87;;;;;;;5.63;100.00;101643.50;5085526;22;20726;-80
2022/10/09 00:18:17;;;;;;;2.57;1.60;;;;;;;5.64;100.00;101647.88;5018146;28;20093;-80
2022/10/09 00:20:44;;;;;;;4.00;1.60;;;;;;;5.54;100.00;101645.94;4986516;28;20069;-80
2022/10/09 00:23:14;;;;;;;4.93;1.70;;;;;;;5.53;100.00;101649.41;5019565;28;20064;-81
2022/10/09 00:25:59;;;;;;;4.13;1.87;;;;;;;5.47;100.00;101641.47;4981122;28;20096;-80
2022/10/09 00:28:27;;;;;;;2.20;1.30;;;;;;;5.43;100.00;101647.50;4996384;28;20434;-79
2022/10/09 00:30:54;;;;;;;2.47;1.43;;;;;;;5.33;100.00;101649.09;4986109;28;20050;-80
2022/10/09 00:33:21;;;;;;;2.33;1.73;;;;;;;5.33;100.00;101653.47;4979065;28;20046;-80
2022/10/09 00:35:48;;;;;;;3.33;1.90;;;;;;;5.26;100.00;101655.09;4998776;28;20048;-80
2022/10/09 00:38:15;;;;;;;4.83;1.57;;;;;;;5.23;100.00;101656.78;4995348;28;20034;-80
2022/10/09 00:40:42;;;;;;;2.60;1.57;;;;;;;5.20;100.00;101665.47;4979145;28;20053;-80
2022/10/09 00:43:15;;;;;;;3.60;1.40;;;;;;;5.19;100.00;101662.81;4986635;28;20438;-80
2022/10/09 00:45:50;;;;;;;4.83;1.70;;;;;;;5.10;100.00;101668.78;5013546;28;20092;-80
2022/10/09 00:48:17;;;;;;;5.30;1.80;;;;;;;5.11;100.00;101667.03;4992402;28;20085;-80
2022/10/09 00:50:48;;;;;;;2.70;1.57;;;;;;;5.03;100.00;101672.13;4997224;28;20608;-80
2022/10/09 00:53:18;;;;;;;2.77;1.40;;;;;;;5.04;100.00;101671.28;4995486;28;20387;-80
2022/10/09 00:55:45;;;;;;;3.07;1.50;;;;;;;5.02;100.00;101673.88;4979132;28;20041;-80
2022/10/09 00:58:12;;;;;;;6.63;2.40;;;;;;;5.01;100.00;101674.72;5000633;28;20101;-80
2022/10/09 01:00:39;;;;;;;4.77;1.80;;;;;;;5.07;100.00;101669.63;4983826;28;20046;-81
2022/10/09 01:03:06;;;;;;;3.50;1.67;;;;;;;4.99;100.00;101681.69;4993987;28;20057;-81
2022/10/09 01:05:52;;;;;;;3.33;1.67;;;;;;;4.99;100.00;101683.41;4995102;28;20115;-80
2022/10/09 01:08:43;;;;;;;4.97;1.73;;;;;;;4.93;100.00;101681.56;4979649;28;20487;-80
2022/10/09 01:11:24;;;;;;;4.00;1.93;;;;;;;4.97;100.00;101682.53;4995537;28;20054;-80
2022/10/09 01:14:03;;;;;;;5.70;1.70;;;;;;;4.90;100.00;101689.38;5015857;28;20041;-80
2022/10/09 01:16:35;;;;;;;2.63;1.60;;;;;;;4.88;100.00;101692.81;5000415;28;20046;-81
2022/10/09 01:19:15;;;;;;;4.73;1.37;;;;;;;4.83;100.00;101695.34;4992714;28;20046;-82
2022/10/09 01:21:50;;;;;;;3.57;1.53;;;;;;;4.80;100.00;101695.28;5019691;28;20053;-84
2022/10/09 01:24:26;;;;;;;2.10;1.30;;;;;;;4.77;100.00;101696.09;4977294;28;20057;-84
2022/10/09 01:27:15;;;;;;;3.70;2.37;;;;;;;4.72;100.00;101697.75;5001213;28;20041;-83
2022/10/09 01:29:47;;;;;;;5.27;1.57;;;;;;;4.69;100.00;101696.78;4994498;28;20049;-83
2022/10/09 01:32:20;;;;;;;2.37;1.50;;;;;;;4.69;100.00;101702.03;4994606;28;20050;-83
2022/10/09 01:34:48;;;;;;;1.67;1.40;;;;;;;4.67;100.00;101704.63;5002745;28;20050;-83
2022/10/09 01:37:16;;;;;;;3.50;1.80;;;;;;;4.64;100.00;101703.69;4994601;28;20104;-84
2022/10/09 01:39:44;;;;;;;3.33;1.70;;;;;;;4.63;100.00;101704.53;5015265;28;20042;-83
2022/10/09 01:42:12;;;;;;;4.27;2.07;;;;;;;4.61;100.00;101703.59;4994101;28;20423;-83
2022/10/09 01:44:39;;;;;;;3.10;1.87;;;;;;;4.63;100.00;101704.53;4987706;28;20461;-84
2022/10/09 01:47:12;;;;;;;2.93;1.73;;;;;;;4.72;100.00;101700.38;4992793;28;20092;-82
2022/10/09 01:49:43;;;;;;;2.23;1.63;;;;;;;4.60;100.00;101707.06;5017644;28;20041;-82
2022/10/09 01:52:44;;;;;;;2.87;1.63;;;;;;;4.66;100.00;101709.81;4995196;28;20042;-82
2022/10/09 01:55:35;;;;;;;4.30;1.67;;;;;;;4.52;100.00;101705.16;5003638;28;20045;-82
2022/10/09 01:58:19;;;;;;;3.20;1.63;;;;;;;4.53;100.00;101712.16;5003705;28;20506;-82
2022/10/09 02:01:25;;;;;;;3.83;1.58;;;;;;;4.51;100.00;101713.88;4997684;28;20041;-82
2022/10/09 02:03:53;;;;;;;6.07;2.30;;;;;;;4.46;100.00;101704.19;4995397;28;20503;-82
2022/10/09 02:06:20;;;;;;;2.50;1.83;;;;;;;4.53;100.00;101711.28;4978481;28;20049;-82
2022/10/09 02:08:49;;;;;;;2.87;1.77;;;;;;;4.49;100.00;101712.97;4961414;28;20038;-82
2022/10/09 02:11:16;;;;;;;3.10;1.73;;;;;;;4.57;100.00;101717.50;4977684;28;20041;-82
2022/10/09 02:13:44;;;;;;;2.60;1.73;;;;;;;4.49;100.00;101726.06;4977446;28;20034;-82
2022/10/09 02:16:35;;;;;;;3.57;1.53;;;;;;;4.44;100.00;101719.81;4989627;28;20042;-82
2022/10/09 02:19:09;;;;;;;5.47;1.73;;;;;;;4.52;100.00;101718.25;5005474;28;20045;-82
2022/10/09 02:21:45;;;;;;;5.57;1.83;;;;;;;4.44;100.00;101734.66;4977545;28;20056;-82
2022/10/09 02:24:16;;;;;;;4.27;2.53;;;;;;;4.40;100.00;101724.97;5009745;28;20049;-83
2022/10/09 02:26:43;;;;;;;6.07;1.60;;;;;;;4.40;100.00;101724.97;5008695;28;20049;-83
2022/10/09 02:29:10;;;;;;;3.33;1.40;;;;;;;4.39;100.00;101729.34;4993651;28;20050;-83
2022/10/09 02:31:39;;;;;;;3.20;1.57;;;;;;;4.40;100.00;101731.09;4977523;28;20046;-82
2022/10/09 02:34:08;;;;;;;2.90;1.70;;;;;;;4.33;100.00;101741.38;4982583;28;20494;-83
2022/10/09 02:36:35;;;;;;;3.07;1.67;;;;;;;4.29;100.00;101742.16;5002111;28;20686;-83
2022/10/09 02:39:03;;;;;;;4.40;1.67;;;;;;;4.29;100.00;101742.16;5018923;28;20038;-82
2022/10/09 02:41:30;;;;;;;4.93;1.70;;;;;;;4.25;100.00;101741.22;4993426;28;20038;-82
2022/10/09 02:43:57;;;;;;;4.97;1.50;;;;;;;4.16;100.00;101741.88;4993978;28;20419;-83
2022/10/09 02:46:24;;;;;;;4.63;1.80;;;;;;;4.21;100.00;101744.63;4976849;28;20050;-83
2022/10/09 02:48:51;;;;;;;5.37;1.80;;;;;;;4.24;100.00;101749.91;4977455;28;20065;-83
2022/10/09 02:51:17;;;;;;;4.90;1.50;;;;;;;4.13;100.00;101751.41;5007087;28;20056;-82
2022/10/09 02:53:44;;;;;;;4.43;1.60;;;;;;;4.02;100.00;101753.75;4979087;28;20038;-82
2022/10/09 02:56:11;;;;;;;4.00;1.60;;;;;;;4.00;100.00;101749.34;5003713;28;20045;-82
2022/10/09 02:58:38;;;;;;;3.40;1.93;;;;;;;3.86;100.00;101749.00;5004534;28;20030;-82
2022/10/09 03:01:05;;;;;;;5.60;2.10;;;;;;;3.85;100.00;101761.19;4995815;28;20518;-82
2022/10/09 03:03:32;;;;;;;4.57;2.07;;;;;;;3.85;100.00;101758.56;4980211;28;20080;-82
2022/10/09 03:06:09;;;;;;;2.57;1.30;;;;;;;3.77;100.00;101760.13;4980709;28;20072;-82
2022/10/09 03:08:38;;;;;;;2.97;1.50;;;;;;;3.75;100.00;101767.03;5005223;28;20042;-82
2022/10/09 03:11:05;;;;;;;4.33;1.57;;;;;;;3.76;100.00;101760.97;5008706;28;20042;-82
2022/10/09 03:13:32;;;;;;;2.67;1.60;;;;;;;3.76;100.00;101758.34;5012898;28;20045;-82
2022/10/09 03:16:07;;;;;;;5.20;1.83;;;;;;;3.76;100.00;101754.84;4992413;28;20103;-81
2022/10/09 03:18:34;;;;;;;10.00;2.00;;;;;;;3.71;100.00;101754.75;4997417;28;20133;-81
2022/10/09 03:21:07;;;;;;;3.00;1.67;;;;;;;3.74;100.00;101753.94;4992108;28;20046;-82
2022/10/09 03:23:34;;;;;;;16.73;2.40;;;;;;;3.71;100.00;101762.59;5001109;28;20034;-82
2022/10/09 03:26:03;;;;;;;5.93;2.10;;;;;;;3.68;100.00;101758.16;5027326;28;20577;-82
2022/10/09 03:28:30;;;;;;;6.50;2.07;;;;;;;3.72;100.00;101759.13;5021348;28;20392;-82
2022/10/09 03:30:56;;;;;;;2.40;1.50;;;;;;;3.71;100.00;101767.81;4982088;28;20045;-83
2022/10/09 03:33:23;;;;;;;8.87;2.10;;;;;;;3.66;100.00;101772.03;5004713;28;20146;-84
2022/10/09 03:35:50;;;;;;;3.70;1.70;;;;;;;3.67;100.00;101766.84;4995572;28;20038;-83
2022/10/09 03:38:16;;;;;;;3.47;2.00;;;;;;;3.72;100.00;101769.59;4989116;28;20068;-83
2022/10/09 03:40:43;;;;;;;5.50;2.80;;;;;;;3.68;100.00;101765.13;4975505;28;20045;-81
2022/10/09 03:43:10;;;;;;;5.90;2.00;;;;;;;3.66;100.00;101770.31;5021107;28;20067;-81
2022/10/09 03:45:40;;;;;;;5.40;2.07;;;;;;;3.62;100.00;101768.47;4996139;28;20519;-81
2022/10/09 03:48:09;;;;;;;3.33;1.60;;;;;;;3.60;100.00;101771.88;4996372;28;20038;-81
2022/10/09 03:50:37;;;;;;;4.83;2.07;;;;;;;3.65;100.00;101776.38;4987167;28;20049;-81
2022/10/09 03:53:04;;;;;;;4.50;1.70;;;;;;;3.66;100.00;101780.75;4981812;28;20500;-82
2022/10/09 03:55:31;;;;;;;8.53;2.30;;;;;;;3.63;100.00;101774.59;4994373;28;20070;-83
2022/10/09 03:57:58;;;;;;;6.37;2.00;;;;;;;3.65;100.00;101783.34;4995861;28;20049;-81
2022/10/09 04:00:24;;;;;;;5.50;2.10;;;;;;;3.74;100.00;101780.97;4981744;28;20092;-81
2022/10/09 04:02:51;;;;;;;5.27;1.60;;;;;;;3.70;100.00;101789.59;5017743;28;20629;-82
2022/10/09 04:05:18;;;;;;;4.77;1.70;;;;;;;3.74;100.00;101795.75;5016659;28;20120;-83
2022/10/09 04:07:45;;;;;;;4.87;1.63;;;;;;;3.74;100.00;101788.81;4980031;28;20046;-81
2022/10/09 04:10:12;;;;;;;4.70;1.83;;;;;;;3.70;100.00;101783.44;5013237;28;20092;-82
2022/10/09 04:12:38;;;;;;;2.97;2.07;;;;;;;3.74;100.00;101786.19;4995621;28;20054;-81
2022/10/09 04:15:05;;;;;;;5.60;1.43;;;;;;;3.71;100.00;101791.34;5012434;28;20069;-81
2022/10/09 04:17:32;;;;;;;4.53;2.20;;;;;;;3.74;100.00;101788.81;4995791;28;20049;-82
2022/10/09 04:19:59;;;;;;;3.87;1.77;;;;;;;3.74;100.00;101793.16;4993298;28;20388;-81
2022/10/09 04:22:26;;;;;;;3.60;1.70;;;;;;;3.80;100.00;101803.75;4996732;28;20041;-81
2022/10/09 04:24:52;;;;;;;6.23;2.20;;;;;;;3.80;100.00;101812.50;5000095;28;20092;-81
2022/10/09 04:27:19;;;;;;;7.07;2.10;;;;;;;3.86;100.00;101815.22;5003052;28;20045;-81
2022/10/09 04:29:46;;;;;;;7.03;2.60;;;;;;;3.93;100.00;101805.81;4995984;28;20041;-81
2022/10/09 04:32:12;;;;;;;7.87;2.93;;;;;;;4.00;100.00;101815.59;4978139;28;20065;-83
2022/10/09 04:34:39;;;;;;;6.00;2.87;;;;;;;4.05;100.00;101823.56;5011962;28;20120;-83
2022/10/09 04:37:05;;;;;;;4.30;2.20;;;;;;;4.12;100.00;101820.22;4991349;28;20476;-82
2022/10/09 04:39:32;;;;;;;3.87;2.10;;;;;;;4.21;100.00;101823.97;4978267;28;20100;-81
2022/10/09 04:41:59;;;;;;;5.17;2.30;;;;;;;4.30;100.00;101825.94;4995009;28;20053;-82
2022/10/09 04:44:25;;;;;;;4.20;2.80;;;;;;;4.35;100.00;101826.91;4995872;28;20549;-82
2022/10/09 04:46:52;;;;;;;7.53;2.87;;;;;;;4.40;100.00;101830.53;4994432;28;20064;-81
2022/10/09 04:49:18;;;;;;;14.43;6.10;;;;;;;4.46;100.00;101829.78;4979216;28;20048;-81
2022/10/09 04:51:45;;;;;;;8.37;4.53;;;;;;;4.52;100.00;101825.56;4992985;28;20084;-81
2022/10/09 04:54:12;;;;;;;8.40;3.57;;;;;;;4.58;100.00;101832.66;4978962;28;20042;-81
2022/10/09 04:56:38;;;;;;;7.37;3.60;;;;;;;4.69;100.00;101833.78;4979194;28;20638;-83
2022/10/09 04:59:05;;;;;;;5.73;3.20;;;;;;;4.71;100.00;101839.09;5018730;28;20037;-82
2022/10/09 05:01:32;;;;;;;6.33;3.77;;;;;;;4.77;100.00;101831.34;5003459;28;20042;-82
2022/10/09 05:04:04;;;;;;;6.20;4.10;;;;;;;4.82;100.00;101834.06;4995585;28;20057;-82
2022/10/09 05:06:31;;;;;;;7.00;3.40;;;;;;;4.83;100.00;101836.72;4994067;28;20038;-81
2022/10/09 05:08:57;;;;;;;5.87;2.77;;;;;;;4.87;100.00;101832.41;4993493;28;20480;-82
2022/10/09 05:11:24;;;;;;;5.57;3.20;;;;;;;4.90;100.00;101827.28;4978885;28;20041;-81
2022/10/09 05:13:53;;;;;;;6.47;3.30;;;;;;;4.94;100.00;101835.22;4996250;28;20030;-81
2022/10/09 05:16:22;;;;;;;5.80;3.23;;;;;;;4.99;100.00;101845.78;4992529;28;20050;-84
2022/10/09 05:18:53;;;;;;;7.33;3.67;;;;;;;5.02;100.00;101846.72;5026789;28;20041;-81
2022/10/09 05:21:20;;;;;;;8.43;3.93;;;;;;;4.99;100.00;101844.06;4994150;28;20041;-84
2022/10/09 05:23:47;;;;;;;5.40;3.20;;;;;;;5.01;100.00;101847.59;4978173;28;20034;-81
2022/10/09 05:26:18;;;;;;;5.23;3.20;;;;;;;5.02;100.00;101846.72;4989276;28;20092;-81
2022/10/09 05:28:45;;;;;;;5.07;2.97;;;;;;;4.99;100.00;101854.53;4997632;28;20040;-81
2022/10/09 05:31:21;;;;;;;6.70;3.03;;;;;;;5.01;100.00;101849.31;5001949;28;20495;-82
2022/10/09 05:33:48;;;;;;;5.00;2.97;;;;;;;4.98;100.00;101857.13;4983756;28;20045;-81
2022/10/09 05:36:15;;;;;;;4.77;2.80;;;;;;;5.06;100.00;101851.19;4993672;28;20042;-80
2022/10/09 05:38:42;;;;;;;6.37;3.10;;;;;;;5.11;100.00;101853.91;4993418;28;20041;-80
2022/10/09 05:41:12;;;;;;;6.00;2.60;;;;;;;5.05;100.00;101862.53;4996674;28;20559;-79
2022/10/09 05:43:40;;;;;;;5.93;3.10;;;;;;;5.09;100.00;101855.59;5032720;28;20041;-79
2022/10/09 05:46:08;;;;;;;8.53;3.40;;;;;;;5.11;100.00;101863.50;4995725;28;20072;-79
2022/10/09 05:48:36;;;;;;;6.50;3.40;;;;;;;5.15;100.00;101860.97;5011321;28;20045;-79
2022/10/09 05:51:21;;;;;;;7.07;3.80;;;;;;;5.15;100.00;101860.09;4994815;28;20049;-79
2022/10/09 05:53:48;;;;;;;6.63;3.80;;;;;;;5.23;100.00;101869.00;4985640;28;20053;-79
2022/10/09 05:56:23;;;;;;;12.90;3.93;;;;;;;5.24;100.00;101869.03;5011024;28;20506;-79
2022/10/09 05:58:52;;;;;;;10.00;3.93;;;;;;;5.28;100.00;101862.97;4999094;28;20064;-79
2022/10/09 06:01:20;;;;;;;13.00;5.20;;;;;;;5.26;100.00;101871.69;4980298;28;20038;-79
2022/10/09 06:03:51;;;;;;;6.63;4.27;;;;;;;5.33;100.00;101870.94;5005053;28;20053;-78
2022/10/09 06:06:20;;;;;;;7.80;3.63;;;;;;;5.37;100.00;101872.75;5006223;28;20038;-79
2022/10/09 06:08:47;;;;;;;10.00;3.70;;;;;;;5.42;100.00;101872.88;4980332;28;20038;-80
2022/10/09 06:11:22;;;;;;;5.17;3.43;;;;;;;5.48;100.00;101875.63;4984552;28;20072;-78
2022/10/09 06:13:50;;;;;;;6.27;3.53;;;;;;;5.52;100.00;101877.44;4988075;28;20421;-81
2022/10/09 06:16:17;;;;;;;5.67;3.07;;;;;;;5.60;100.00;101889.84;4992319;28;20042;-80
2022/10/09 06:18:46;;;;;;;6.77;3.00;;;;;;;5.59;100.00;101885.44;5007918;28;20044;-80
2022/10/09 06:21:15;;;;;;;4.67;2.93;;;;;;;5.65;100.00;101895.19;4994713;28;20073;-82
2022/10/09 06:23:42;;;;;;;4.47;2.80;;;;;;;5.70;100.00;101895.25;4997121;28;20069;-81
2022/10/09 06:26:11;;;;;;;12.00;3.97;;;;;;;5.79;100.00;101898.94;4994404;28;20388;-79
2022/10/09 06:28:38;;;;;;;7.23;3.67;;;;;;;5.78;100.00;101896.28;4997634;28;20042;-80
2022/10/09 06:31:10;;;;;;;6.43;3.27;;;;;;;5.85;100.00;101898.16;5012060;28;20396;-80
2022/10/09 06:33:38;;;;;;;5.40;3.50;;;;;;;5.99;100.00;101904.59;4994232;28;20072;-80
2022/10/09 06:36:07;;;;;;;5.13;3.27;;;;;;;5.98;100.00;101915.94;5011456;28;20037;-81
2022/10/09 06:38:37;;;;;;;6.60;3.30;;;;;;;6.04;100.00;101905.53;4995959;28;20069;-81
2022/10/09 06:41:06;;;;;;;4.50;3.03;;;;;;;6.09;100.00;101917.03;4998283;28;20068;-79
2022/10/09 06:43:33;;;;;;;7.07;4.00;;;;;;;6.00;100.00;101913.34;4998574;28;20057;-81
2022/10/09 06:46:01;;;;;;;7.60;4.80;;;;;;;6.02;100.00;101923.00;5029194;28;20384;-80
2022/10/09 06:48:32;;;;;;;5.77;3.43;;;;;;;6.06;100.00;101916.97;4996522;28;20034;-82
2022/10/09 06:51:12;;;;;;;61.83;39.77;;;;;;;6.10;100.00;101924.03;4999802;28;20069;-82
2022/10/09 06:53:42;;;;;;;18.80;13.30;;;;;;;6.20;100.00;101935.56;4983603;28;20058;-80
2022/10/09 06:56:09;;;;;;;10.33;6.60;;;;;;;6.40;100.00;101922.81;4992669;28;20041;-81
2022/10/09 06:58:36;;;;;;;9.07;4.97;;;;;;;6.32;100.00;101927.03;4988149;28;20022;-83
2022/10/09 07:01:10;;;;;;;11.23;4.20;;;;;;;6.33;100.00;101928.81;4982646;28;20040;-82
2022/10/09 07:03:39;;;;;;;16.23;9.38;;;;;;;6.54;100.00;101926.53;4996495;28;20037;-82
2022/10/09 07:06:10;;;;;;;8.53;5.23;;;;;;;6.61;100.00;101933.66;4994382;28;21465;-82
2022/10/09 07:08:38;;;;;;;6.70;3.77;;;;;;;6.48;100.00;101939.56;4996882;28;20042;-81
2022/10/09 07:11:14;;;;;;;20.67;18.77;;;;;;;6.59;100.00;101930.13;5009435;28;20041;-82
2022/10/09 07:13:41;;;;;;;8.63;7.80;;;;;;;6.64;100.00;101935.44;4993636;28;20521;-82
2022/10/09 07:16:09;;;;;;;6.33;5.50;;;;;;;6.70;100.00;101939.03;5007124;28;20522;-83
2022/10/09 07:18:37;;;;;;;17.20;15.77;;;;;;;6.80;100.00;101937.44;4977407;28;20088;-81
2022/10/09 07:21:06;;;;;;;7.90;4.30;;;;;;;7.01;100.00;101940.41;4971892;28;20041;-83
2022/10/09 07:23:34;;;;;;;14.17;8.17;;;;;;;7.13;100.00;101942.31;4995855;28;20228;-83
2022/10/09 07:26:06;;;;;;;6.93;4.20;;;;;;;7.20;100.00;101943.28;4976555;28;21745;-80
2022/10/09 07:28:33;;;;;;;10.23;7.77;;;;;;;7.11;100.00;101948.41;5001146;28;20046;-82
2022/10/09 07:31:04;;;;;;;7.63;5.73;;;;;;;7.20;100.00;101946.78;4981716;28;20152;-81
2022/10/09 07:33:30;;;;;;;9.40;4.60;;;;;;;7.18;100.00;101951.16;4997194;28;20042;-79
2022/10/09 07:35:59;;;;;;;11.20;4.77;;;;;;;7.19;100.00;101955.53;4975168;28;20814;-82
2022/10/09 07:38:26;;;;;;;8.37;4.83;;;;;;;7.38;100.00;101951.41;5027711;28;21839;-81
2022/10/09 07:40:53;;;;;;;9.33;7.70;;;;;;;7.40;100.00;101949.72;4998034;28;20042;-80
2022/10/09 07:43:21;;;;;;;9.63;7.60;;;;;;;7.53;100.00;101964.78;5003652;28;20454;-81
2022/10/09 07:45:47;;;;;;;8.50;4.90;;;;;;;7.55;100.00;101965.66;4996984;28;20038;-81
2022/10/09 07:48:14;;;;;;;9.33;5.43;;;;;;;7.61;100.00;101968.38;4975490;28;20052;-81
2022/10/09 07:50:41;;;;;;;10.20;4.93;;;;;;;7.72;100.00;101962.38;4974069;28;20046;-80
2022/10/09 07:53:07;;;;;;;11.50;5.87;;;;;;;7.75;100.00;101972.94;4994793;28;20045;-81
2022/10/09 07:55:35;;;;;;;6.57;5.10;;;;;;;7.84;100.00;101976.56;5010772;28;20046;-82
2022/10/09 07:58:01;;;;;;;7.00;4.60;;;;;;;7.78;100.00;101971.22;4995253;28;20147;-80
2022/10/09 08:00:28;;;;;;;8.90;5.33;;;;;;;7.85;100.00;101980.06;4977591;28;20041;-81
2022/10/09 08:02:55;;;;;;;8.03;4.90;;;;;;;7.95;100.00;101971.41;4976044;28;20049;-81
2022/10/09 08:05:21;;;;;;;11.73;5.30;;;;;;;8.04;100.00;101975.88;5003230;28;20053;-83
2022/10/09 08:07:48;;;;;;;9.07;5.80;;;;;;;8.04;100.00;101978.53;4994059;28;20041;-81
2022/10/09 08:10:15;;;;;;;10.60;5.40;;;;;;;8.12;100.00;101988.28;4977399;28;20462;-82
2022/10/09 08:12:42;;;;;;;7.90;6.20;;;;;;;8.22;100.00;101983.09;4977646;28;20407;-83
2022/10/09 08:15:08;;;;;;;9.63;5.43;;;;;;;8.18;100.00;101985.72;4968006;28;20053;-83
2022/10/09 08:17:35;;;;;;;7.97;5.23;;;;;;;8.27;100.00;101986.69;5007313;28;20050;-83
2022/10/09 08:20:02;;;;;;;9.30;5.30;;;;;;;8.36;100.00;101976.25;4994147;28;20049;-83
2022/10/09 08:22:29;;;;;;;10.03;5.10;;;;;;;8.31;100.00;101997.22;4994044;28;20052;-82
2022/10/09 08:24:55;;;;;;;13.07;6.33;;;;;;;8.49;100.00;101998.31;4990137;28;20053;-83
2022/10/09 08:27:22;;;;;;;8.53;5.00;;;;;;;8.59;100.00;102000.19;4990299;28;20042;-83
2022/10/09 08:29:49;;;;;;;9.47;5.33;;;;;;;8.63;100.00;102005.47;4972420;28;20057;-83
2022/10/09 08:32:15;;;;;;;10.10;6.03;;;;;;;8.37;100.00;102007.00;4991861;28;20053;-83
2022/10/09 08:34:42;;;;;;;8.60;5.20;;;;;;;8.63;100.00;101996.69;5003822;28;20614;-83
2022/10/09 08:37:09;;;;;;;7.93;5.65;;;;;;;8.68;100.00;102002.91;4989569;28;20042;-83
2022/10/09 08:39:35;;;;;;;8.65;5.40;;;;;;;8.81;100.00;102002.13;5005658;28;20506;-84
2022/10/09 08:42:03;;;;;;;7.53;5.57;;;;;;;8.76;100.00;102013.50;4980202;28;20652;-81
2022/10/09 08:44:31;;;;;;;9.07;6.07;;;;;;;8.92;100.00;102000.47;4996197;28;20053;-82
2022/10/09 08:47:15;;;;;;;8.13;6.13;;;;;;;9.15;100.00;102007.66;5023006;28;20045;-81
2022/10/09 08:49:57;;;;;;;10.10;5.57;;;;;;;9.21;100.00;102008.56;5023934;28;20059;-80
2022/10/09 08:52:36;;;;;;;9.45;5.75;;;;;;;9.36;100.00;102012.19;4995226;28;20042;-80
2022/10/09 08:55:26;;;;;;;13.80;7.10;;;;;;;9.40;100.00;102004.28;5030301;28;20037;-81
2022/10/09 08:57:55;;;;;;;9.23;5.38;;;;;;;9.27;100.00;102007.75;5020551;28;20492;-80
2022/10/09 09:00:43;;;;;;;12.60;6.32;;;;;;;9.31;100.00;102002.47;4994667;28;20045;-79
2022/10/09 09:03:26;;;;;;;9.15;5.40;;;;;;;9.42;100.00;102010.50;5007063;28;20042;-82
2022/10/09 09:06:05;;;;;;;9.32;5.38;;;;;;;9.48;100.00;102009.63;4976821;28;20061;-83
2022/10/09 09:08:55;;;;;;;11.73;6.53;;;;;;;9.67;100.00;102021.13;5008568;28;20099;-83
2022/10/09 09:11:39;;;;;;;12.52;5.60;;;;;;;9.70;100.00;102011.50;4975434;28;20506;-83
2022/10/09 09:14:11;;;;;;;9.23;5.82;;;;;;;9.83;100.00;102020.34;4991707;28;20042;-80
2022/10/09 09:16:59;;;;;;;9.70;5.72;;;;;;;9.80;100.00;102015.94;4974651;28;20045;-81
2022/10/09 09:19:37;;;;;;;7.88;5.70;;;;;;;9.93;100.00;102008.97;4997113;28;20458;-83
2022/10/09 09:22:09;;;;;;;9.90;6.13;;;;;;;10.04;100.00;102014.28;5013058;28;20052;-80
2022/10/09 09:24:38;;;;;;;9.55;5.25;;;;;;;10.03;100.00;102008.13;4997151;28;20045;-81
2022/10/09 09:27:13;;;;;;;9.55;5.57;;;;;;;10.18;100.00;102006.41;4973913;28;20491;-82
2022/10/09 09:29:43;;;;;;;9.45;5.28;;;;;;;10.15;100.00;102010.78;4995529;28;20034;-80
2022/10/09 09:32:16;;;;;;;10.63;5.97;;;;;;;10.26;100.00;102010.88;4995491;28;20042;-80
2022/10/09 09:34:43;;;;;;;9.50;6.20;;;;;;;10.33;100.00;102003.81;4990821;28;20096;-81
2022/10/09 09:37:11;;;;;;;10.65;6.45;;;;;;;10.45;100.00;102001.22;5006361;28;20047;-80
2022/10/09 09:39:37;;;;;;;17.15;7.07;;;;;;;10.53;100.00;102004.75;4999416;28;20045;-83
2022/10/09 09:42:26;;;;;;;10.27;5.25;;;;;;;10.65;100.00;102010.03;4985786;28;20096;-83
2022/10/09 09:44:58;;;;;;;6.68;4.43;;;;;;;10.56;100.00;102011.78;5004628;28;20081;-82
2022/10/09 09:47:49;;;;;;;9.00;4.78;;;;;;;10.61;100.00;102016.22;4965054;28;20054;-83
2022/10/09 09:50:31;;;;;;;6.80;4.38;;;;;;;10.62;100.00;102011.81;5007984;28;20641;-84
2022/10/09 09:53:30;;;;;;;8.52;4.78;;;;;;;10.61;100.00;102000.34;4980214;28;20053;-83
2022/10/09 09:55:57;;;;;;;9.73;4.90;;;;;;;10.81;100.00;102010.91;4991909;28;20091;-83
2022/10/09 09:58:32;;;;;;;8.10;4.63;;;;;;;11.05;100.00;101999.47;4991589;28;20455;-84
2022/10/09 10:01:01;;;;;;;7.75;4.40;;;;;;;11.13;100.00;101994.16;5006364;28;20037;-83
2022/10/09 10:03:29;;;;;;;8.77;3.45;;;;;;;11.31;100.00;101993.25;5004183;28;20084;-84
2022/10/09 10:05:57;;;;;;;6.43;3.67;;;;;;;11.47;100.00;101998.50;4982970;28;20057;-86
2022/10/09 10:08:28;;;;;;;7.65;3.97;;;;;;;11.71;100.00;101994.88;4978183;28;20072;-85
2022/10/09 10:10:59;;;;;;;7.70;3.78;;;;;;;11.94;100.00;102001.88;5023155;28;20129;-83
2022/10/09 10:13:33;;;;;;;8.63;4.03;;;;;;;12.19;100.00;101986.72;4986768;28;20074;-84
2022/10/09 10:16:00;;;;;;;4.78;2.97;;;;;;;12.23;100.00;101992.00;4987224;28;20050;-85
2022/10/09 10:18:31;;;;;;;6.00;3.15;;;;;;;12.44;100.00;101985.66;4992384;28;20507;-83
2022/10/09 10:21:12;;;;;;;8.75;3.65;;;;;;;12.67;100.00;101983.75;4982525;28;20041;-84
2022/10/09 10:23:54;;;;;;;6.25;3.38;;;;;;;12.84;100.00;101990.69;4995662;28;20042;-84
2022/10/09 10:26:33;;;;;;;6.00;3.17;;;;;;;12.91;100.00;101974.69;5008229;28;20487;-84
2022/10/09 10:29:19;;;;;;;7.93;3.42;;;;;;;12.89;100.00;101984.44;4972740;28;20042;-84
2022/10/09 10:32:11;;;;;;;5.93;2.92;;;;;;;13.14;100.00;101979.78;4992474;28;20034;-83
2022/10/09 10:34:52;;;;;;;7.18;2.90;;;;;;;12.99;100.00;101973.75;5006724;28;21547;-84
2022/10/09 10:37:46;;;;;;;4.40;3.55;;;;;;;13.29;100.00;101984.09;4995386;28;20048;-79
2022/10/09 10:40:29;;;;;;;6.05;2.95;;;;;;;13.41;100.00;101976.00;5008514;28;20081;-79
2022/10/09 10:43:08;;;;;;;6.47;3.67;;;;;;;13.42;100.00;101967.13;5012246;28;20054;-79
2022/10/09 10:45:50;;;;;;;7.85;2.38;;;;;;;13.65;100.00;101966.00;5007221;28;20042;-82
2022/10/09 10:48:39;;;;;;;14.80;13.38;;;;;;;13.85;100.00;101963.94;5008950;28;20041;-83
2022/10/09 10:51:15;;;;;;;9.13;7.90;;;;;;;13.90;100.00;101961.25;5002302;28;20049;-80
2022/10/09 10:54:18;;;;;;;5.13;3.22;;;;;;;13.99;100.00;101956.69;5008762;28;20062;-80
2022/10/09 10:57:02;;;;;;;10.13;3.17;;;;;;;14.17;100.00;101960.84;4992110;28;20458;-78
2022/10/09 10:59:45;;;;;;;8.50;2.95;;;;;;;14.25;100.00;101963.38;4998614;28;20042;-83
2022/10/09 11:02:47;;;;;;;4.57;2.47;;;;;;;14.30;100.00;101956.25;5008054;28;20041;-81
2022/10/09 11:05:37;;;;;;;7.03;2.47;;;;;;;14.40;97.07;101949.88;5011650;28;20042;-80
2022/10/09 11:08:12;;;;;;;9.30;2.38;;;;;;;14.47;97.73;101953.34;5021096;28;20041;-80
2022/10/09 11:11:10;;;;;;;3.53;1.73;;;;;;;14.42;96.74;101947.19;5035509;28;20041;-83
2022/10/09 11:14:15;;;;;;;4.32;1.83;;;;;;;14.51;89.56;101945.28;5010696;28;20053;-79
2022/10/09 11:17:01;;;;;;;3.63;1.52;;;;;;;14.72;89.95;101935.22;5010868;28;20045;-82
2022/10/09 11:20:04;;;;;;;6.88;2.03;;;;;;;14.87;86.05;101933.13;5012896;28;20038;-78
2022/10/09 11:22:56;;;;;;;4.60;1.83;;;;;;;15.15;83.47;101933.50;5008612;28;20072;-79
2022/10/09 11:25:43;;;;;;;3.67;1.88;;;;;;;15.16;79.19;101929.06;5012334;28;20030;-82
2022/10/09 11:28:12;;;;;;;8.07;2.50;;;;;;;15.35;80.51;101927.78;4997534;28;20072;-78
2022/10/09 11:31:03;;;;;;;7.72;7.05;;;;;;;15.51;76.23;101927.47;4993925;28;20045;-79
2022/10/09 11:33:37;;;;;;;3.83;2.78;;;;;;;15.60;74.57;101916.63;4987686;28;20125;-79
2022/10/09 11:36:15;;;;;;;6.75;5.15;;;;;;;15.45;78.10;101920.47;4999970;28;20104;-83
2022/10/09 11:38:49;;;;;;;4.80;2.65;;;;;;;15.46;73.70;101919.56;5001980;28;20045;-83
2022/10/09 11:41:17;;;;;;;7.22;2.75;;;;;;;15.22;67.88;101912.97;4997057;28;20042;-84
2022/10/09 11:44:19;;;;;;;3.70;1.30;;;;;;;15.21;73.42;101914.72;5000071;28;20046;-84